Indian Rocks Beach, FL (33785)

1:15 PM EST on February 22, 2017 (GMT -0500)
ME0779 | | Change Station

Elev 45 ft 27.87 °N, 82.83 °W | Updated 6 minutes ago

Mostly Cloudy
Mostly Cloudy
70.0 °F
Feels Like 70.0 °F
N
9.0
Wind Variable Wind from SSE
Gusts 25.0 mph

Today
High -- | Low -- °F
--% Chance of Precip.
Yesterday
High -- | Low -- °F
Precip. -- in
Pressure 29.69 in
Visibility 10.0 miles
Clouds Scattered Clouds 4100 ft
Mostly Cloudy 5000 ft
Overcast 6500 ft
Dew Point 64 °F
Humidity 81%
Rainfall 0.22 in
Snow Depth Not available.
7:02 AM 6:27 PM
Waning Crescent, 16% visible
METAR KPIE 221753Z 16015G27KT 10SM SCT041 BKN050 OVC065 22/17 A2969 RMK AO2 PK WND 14031/1706 SLP054 60004 T02170167 10233 20183 56014
Pressure 29.69 in
Visibility 10.0 miles
Clouds Scattered Clouds 4100 ft
Mostly Cloudy 5000 ft
Overcast 6500 ft
Dew Point 64 °F
Humidity 81%
Rainfall 0.22 in
Snow Depth Not available.
7:02 AM 6:27 PM
Waning Crescent, 16% visible
METAR KPIE 221753Z 16015G27KT 10SM SCT041 BKN050 OVC065 22/17 A2969 RMK AO2 PK WND 14031/1706 SLP054 60004 T02170167 10233 20183 56014

Get Your Daily Forecast Email!

Thanks for signing up!

Be on the lookout for a verification email in your inbox.

You'll start receiving the daily forecast at 8 AM.

×

10-Day Weather Forecast

Almanac

Astronomy

Feb. 22, 2017 Rise Set
Actual Time
Civil Twilight
Nautical Twilight
Astronomical Twilight
Moon
Length of Visible Light
Length of Day
Tomorrow will be .
, % of the Moon is Illuminated

Today's Extremes

State Highs State Lows

Community

WunderPhotos

Upload Photos

1,962,540 photos uploaded!

WunderBlog® & News

Nearby

Air Quality

  Air Quality AQ Index Pollutant
Not available.

Snow Depth

Station Depth Elevation

Earthquake Activity

City Distance Mag. Time & Date
Minimum magnitude displayed is 2.5.

Coastal Water Temperatures

Place Temperature

Stations

Nearby Weather Stations

Station Location Temp. Windchill Dew Point Humidity Wind Precip. Elev Updated Type
                   

Watches & Warnings

There are currently no watches in effect.